Time;durP1;ratioP1;P1;durP2;ratioP2;P2;SDS_P1;SDS_P2;PMS_P1;PMS_P2;Temp;Humidity;BMP_temperature;BMP_pressure;BME280_temperature;BME280_humidity;BME280_pressure;Samples;Min_cycle;Max_cycle;Signal;HPM_P1;HPM_P2
2021/12/27 00:01:22;;;;;;;;;4.00;4.00;;;;;;;;4976241;28;45394;-59
2021/12/27 00:03:49;;;;;;;;;5.00;5.00;;;;;;;;4975106;28;45349;-60
2021/12/27 00:06:15;;;;;;;;;5.00;5.00;;;;;;;;4974621;28;45533;-60
2021/12/27 00:08:41;;;;;;;;;7.67;3.00;;;;;;;;4973982;28;45306;-60
2021/12/27 00:11:07;;;;;;;;;3.67;3.67;;;;;;;;4976533;28;45346;-60
2021/12/27 00:13:33;;;;;;;;;3.00;3.00;;;;;;;;4976577;28;45364;-59
2021/12/27 00:15:58;;;;;;;;;2.00;2.00;;;;;;;;4976407;28;45258;-60
2021/12/27 00:18:24;;;;;;;;;8.67;4.67;;;;;;;;4975930;28;45253;-60
2021/12/27 00:20:49;;;;;;;;;4.33;2.67;;;;;;;;4974186;28;45444;-60
2021/12/27 00:23:14;;;;;;;;;4.00;3.00;;;;;;;;4976478;28;45305;-60
2021/12/27 00:25:39;;;;;;;;;1.33;1.33;;;;;;;;4976252;28;45352;-60
2021/12/27 00:28:05;;;;;;;;;3.00;3.00;;;;;;;;4976019;28;45934;-61
2021/12/27 00:30:30;;;;;;;;;3.33;3.33;;;;;;;;4974880;28;45416;-60
2021/12/27 00:32:55;;;;;;;;;3.00;3.00;;;;;;;;4974543;28;45322;-60
2021/12/27 00:35:25;;;;;;;;;4.33;3.00;;;;;;;;4976043;28;45408;-62
2021/12/27 00:37:51;;;;;;;;;3.00;3.00;;;;;;;;4976139;28;46133;-60
2021/12/27 00:40:16;;;;;;;;;3.00;3.00;;;;;;;;4975770;28;45311;-60
2021/12/27 00:42:41;;;;;;;;;4.00;3.00;;;;;;;;4975966;28;45483;-60
2021/12/27 00:45:07;;;;;;;;;3.00;3.00;;;;;;;;4976161;28;45543;-60
2021/12/27 00:47:32;;;;;;;;;2.00;2.00;;;;;;;;4974324;28;45430;-61
2021/12/27 00:49:57;;;;;;;;;4.33;3.00;;;;;;;;4975597;28;45325;-61
2021/12/27 00:52:23;;;;;;;;;1.67;1.33;;;;;;;;4975695;28;45374;-60
2021/12/27 00:54:48;;;;;;;;;2.00;2.00;;;;;;;;4976322;28;45431;-60
2021/12/27 00:57:13;;;;;;;;;1.50;1.50;;;;;;;;4973641;28;46284;-61
2021/12/27 00:59:38;;;;;;;;;3.00;3.00;;;;;;;;4975529;28;45227;-60
2021/12/27 01:02:04;;;;;;;;;3.00;2.00;;;;;;;;4956183;28;45267;-60
2021/12/27 01:04:29;;;;;;;;;4.67;3.33;;;;;;;;4954404;28;45533;-60
2021/12/27 01:06:54;;;;;;;;;2.33;2.33;;;;;;;;4956014;28;46448;-60
2021/12/27 01:09:35;;;;;;;;;3.00;3.00;;;;;;;;4963534;28;45277;-60
2021/12/27 01:15:11;;;;;;;;;2.00;2.00;;;;;;;;4953953;28;45251;-60
2021/12/27 01:17:38;;;;;;;;;4.00;4.00;;;;;;;;4956157;28;46257;-60
2021/12/27 01:20:04;;;;;;;;;4.00;2.00;;;;;;;;4958189;28;45364;-59
2021/12/27 01:22:30;;;;;;;;;2.00;2.00;;;;;;;;4979228;28;45484;-60
2021/12/27 01:24:55;;;;;;;;;2.33;2.33;;;;;;;;4978510;28;45567;-60
2021/12/27 01:27:20;;;;;;;;;2.00;2.00;;;;;;;;4978920;28;46299;-60
2021/12/27 01:29:45;;;;;;;;;2.00;2.00;;;;;;;;4978999;28;45411;-60
2021/12/27 01:32:10;;;;;;;;;2.00;2.00;;;;;;;;4977767;28;45474;-60
2021/12/27 01:34:36;;;;;;;;;3.33;3.00;;;;;;;;4977499;28;45350;-60
2021/12/27 01:37:01;;;;;;;;;3.00;3.00;;;;;;;;4977297;28;45438;-60
2021/12/27 01:39:26;;;;;;;;;3.33;2.00;;;;;;;;4977371;28;45348;-60
2021/12/27 01:41:52;;;;;;;;;3.33;2.00;;;;;;;;4978588;28;45492;-60
2021/12/27 01:44:17;;;;;;;;;2.00;2.00;;;;;;;;4981834;28;45396;-60
2021/12/27 01:46:43;;;;;;;;;4.00;2.33;;;;;;;;4977515;28;45440;-60
2021/12/27 01:49:08;;;;;;;;;2.00;2.00;;;;;;;;4978529;28;45301;-60
2021/12/27 01:51:35;;;;;;;;;2.00;2.00;;;;;;;;4978453;28;45496;-61
2021/12/27 01:54:00;;;;;;;;;8.00;4.00;;;;;;;;4978812;28;45510;-60
2021/12/27 01:56:26;;;;;;;;;5.00;5.00;;;;;;;;4977812;28;45541;-60
2021/12/27 01:58:52;;;;;;;;;3.33;2.33;;;;;;;;4978344;28;45326;-61
2021/12/27 02:01:17;;;;;;;;;2.67;2.67;;;;;;;;4978193;28;45380;-60
2021/12/27 02:03:43;;;;;;;;;2.67;2.67;;;;;;;;4978031;28;45357;-60
2021/12/27 02:06:10;;;;;;;;;2.33;2.33;;;;;;;;4978047;28;46125;-60
2021/12/27 02:08:36;;;;;;;;;2.00;2.00;;;;;;;;4977745;28;45391;-60
2021/12/27 02:11:01;;;;;;;;;3.00;2.00;;;;;;;;4973736;28;45810;-60
2021/12/27 02:13:28;;;;;;;;;1.33;1.33;;;;;;;;4976921;28;45686;-60
2021/12/27 02:15:53;;;;;;;;;4.00;3.00;;;;;;;;4977897;28;45406;-60
2021/12/27 02:18:18;;;;;;;;;1.67;1.67;;;;;;;;4975318;28;45507;-60
2021/12/27 02:20:44;;;;;;;;;4.33;2.00;;;;;;;;4977667;28;45370;-60
2021/12/27 02:23:15;;;;;;;;;5.67;3.00;;;;;;;;4978259;28;45329;-60
2021/12/27 02:25:40;;;;;;;;;1.00;1.00;;;;;;;;4977902;28;46515;-60
2021/12/27 02:28:07;;;;;;;;;2.00;2.00;;;;;;;;4976652;28;45267;-60
2021/12/27 02:30:33;;;;;;;;;3.33;3.00;;;;;;;;4977446;28;45418;-60
2021/12/27 02:33:00;;;;;;;;;2.00;2.00;;;;;;;;4977883;28;45331;-62
2021/12/27 02:35:27;;;;;;;;;2.33;2.33;;;;;;;;4977422;28;45320;-60
2021/12/27 02:37:52;;;;;;;;;2.00;2.00;;;;;;;;4977701;28;45401;-60
2021/12/27 02:40:19;;;;;;;;;3.00;2.67;;;;;;;;4976026;28;45454;-60
2021/12/27 02:42:59;;;;;;;;;2.67;2.67;;;;;;;;4977945;28;45352;-60
2021/12/27 02:45:26;;;;;;;;;3.00;3.00;;;;;;;;4976206;28;45583;-60
2021/12/27 02:47:51;;;;;;;;;5.00;3.00;;;;;;;;4977673;28;45457;-60
2021/12/27 02:50:18;;;;;;;;;4.67;3.33;;;;;;;;4977463;28;45406;-60
2021/12/27 02:52:43;;;;;;;;;4.33;4.33;;;;;;;;4976628;28;45429;-60
2021/12/27 02:55:10;;;;;;;;;4.00;3.67;;;;;;;;4976162;28;46321;-60
2021/12/27 02:57:35;;;;;;;;;3.00;3.00;;;;;;;;4977476;28;45374;-60
2021/12/27 03:00:00;;;;;;;;;3.67;3.67;;;;;;;;4977414;28;45406;-60
2021/12/27 03:02:26;;;;;;;;;3.33;2.33;;;;;;;;4977235;28;45505;-60
2021/12/27 03:04:51;;;;;;;;;3.67;3.67;;;;;;;;4975689;28;46210;-60
2021/12/27 03:07:16;;;;;;;;;2.00;1.00;;;;;;;;4977272;28;45324;-61
2021/12/27 03:09:41;;;;;;;;;2.00;2.00;;;;;;;;4977160;28;45242;-60
2021/12/27 03:12:10;;;;;;;;;3.67;2.67;;;;;;;;4976979;28;45324;-60
2021/12/27 03:14:36;;;;;;;;;4.00;4.00;;;;;;;;4976818;28;45388;-60
2021/12/27 03:17:01;;;;;;;;;5.00;4.00;;;;;;;;4977141;28;45437;-60
2021/12/27 03:19:26;;;;;;;;;5.00;4.00;;;;;;;;4975774;28;45252;-60
2021/12/27 03:21:51;;;;;;;;;4.00;3.00;;;;;;;;4977151;28;45463;-60
2021/12/27 03:24:16;;;;;;;;;9.00;5.00;;;;;;;;4976931;28;45194;-60
2021/12/27 03:26:42;;;;;;;;;4.33;4.33;;;;;;;;4976566;28;45504;-60
2021/12/27 03:29:07;;;;;;;;;4.33;4.00;;;;;;;;4977352;28;45167;-59
2021/12/27 03:31:32;;;;;;;;;5.00;4.67;;;;;;;;4977066;28;45222;-59
2021/12/27 03:33:59;;;;;;;;;3.67;3.67;;;;;;;;4976811;28;45913;-59
2021/12/27 03:36:24;;;;;;;;;4.33;4.33;;;;;;;;4976747;28;45285;-60
2021/12/27 03:38:52;;;;;;;;;4.00;2.33;;;;;;;;4977007;28;45419;-60
2021/12/27 03:41:19;;;;;;;;;4.67;4.67;;;;;;;;4975263;28;45531;-60
2021/12/27 03:43:45;;;;;;;;;5.67;4.00;;;;;;;;4976291;28;45420;-60
2021/12/27 03:46:10;;;;;;;;;6.33;4.00;;;;;;;;4963880;28;45365;-60
2021/12/27 03:48:35;;;;;;;;;5.67;5.67;;;;;;;;4956986;28;45352;-60
2021/12/27 03:51:02;;;;;;;;;7.67;4.67;;;;;;;;4963813;28;45644;-60
2021/12/27 03:53:29;;;;;;;;;7.33;5.00;;;;;;;;4974942;28;46775;-60
2021/12/27 03:55:54;;;;;;;;;5.00;5.00;;;;;;;;4976866;28;45401;-59
2021/12/27 03:59:19;;;;;;;;;5.67;5.67;;;;;;;;4974737;28;45393;-60
2021/12/27 04:03:39;;;;;;;;;5.00;3.67;;;;;;;;4975866;28;45506;-60
2021/12/27 04:06:04;;;;;;;;;3.67;3.67;;;;;;;;4974412;28;45495;-60
2021/12/27 04:08:30;;;;;;;;;4.67;3.00;;;;;;;;4976012;28;45438;-60
2021/12/27 04:10:55;;;;;;;;;6.33;5.67;;;;;;;;4976750;28;45441;-60
2021/12/27 04:13:21;;;;;;;;;7.00;5.00;;;;;;;;4976299;28;45453;-60
2021/12/27 04:15:47;;;;;;;;;6.33;6.33;;;;;;;;4974822;28;45385;-60
2021/12/27 04:18:12;;;;;;;;;4.33;3.00;;;;;;;;4976489;28;45376;-60
2021/12/27 04:20:38;;;;;;;;;5.00;5.00;;;;;;;;4975745;28;45571;-60
2021/12/27 04:23:04;;;;;;;;;5.67;4.00;;;;;;;;4976054;28;46039;-60
2021/12/27 04:25:29;;;;;;;;;7.00;4.00;;;;;;;;4976269;28;45317;-60
2021/12/27 04:27:54;;;;;;;;;5.00;5.00;;;;;;;;4976461;28;45301;-60
2021/12/27 04:30:20;;;;;;;;;6.00;4.67;;;;;;;;4976310;28;45547;-60
2021/12/27 04:32:46;;;;;;;;;6.00;4.00;;;;;;;;4975617;28;45818;-60
2021/12/27 04:35:13;;;;;;;;;4.00;4.00;;;;;;;;4976493;28;45298;-60
2021/12/27 04:37:38;;;;;;;;;3.00;2.00;;;;;;;;4976353;28;45242;-60
2021/12/27 04:40:05;;;;;;;;;5.67;4.33;;;;;;;;4976185;28;45495;-60
2021/12/27 04:42:31;;;;;;;;;7.33;5.67;;;;;;;;4975187;28;47501;-60
2021/12/27 04:44:57;;;;;;;;;5.33;4.33;;;;;;;;4976161;28;45372;-60
2021/12/27 04:47:22;;;;;;;;;5.00;5.00;;;;;;;;4975980;28;45444;-60
2021/12/27 04:49:47;;;;;;;;;1.33;1.00;;;;;;;;4974713;28;45451;-60
2021/12/27 04:52:12;;;;;;;;;9.00;6.67;;;;;;;;4975732;28;45495;-60
2021/12/27 04:54:38;;;;;;;;;4.33;4.00;;;;;;;;4975974;28;45436;-60
2021/12/27 04:57:04;;;;;;;;;9.00;9.00;;;;;;;;4979935;28;45383;-60
2021/12/27 04:59:29;;;;;;;;;4.00;3.00;;;;;;;;4979848;28;45443;-60
2021/12/27 05:01:54;;;;;;;;;4.33;4.33;;;;;;;;4979231;28;46193;-60
2021/12/27 05:04:19;;;;;;;;;7.33;5.00;;;;;;;;4976693;28;45270;-60
2021/12/27 05:06:45;;;;;;;;;5.00;5.00;;;;;;;;4977815;28;45344;-60
2021/12/27 05:09:11;;;;;;;;;5.33;5.33;;;;;;;;4979171;28;45363;-60
2021/12/27 05:11:36;;;;;;;;;4.67;4.67;;;;;;;;4979306;28;46962;-60
2021/12/27 05:14:01;;;;;;;;;6.33;4.67;;;;;;;;4979249;28;45260;-60
2021/12/27 05:16:27;;;;;;;;;5.00;4.67;;;;;;;;4978941;28;45342;-60
2021/12/27 05:18:52;;;;;;;;;5.67;4.33;;;;;;;;4979264;28;45160;-60
2021/12/27 05:21:17;;;;;;;;;9.33;7.33;;;;;;;;4979219;28;46269;-60
2021/12/27 05:23:42;;;;;;;;;6.00;6.00;;;;;;;;4977602;28;45246;-60
2021/12/27 05:26:08;;;;;;;;;4.33;4.33;;;;;;;;4977352;28;45311;-61
2021/12/27 05:28:33;;;;;;;;;4.00;4.00;;;;;;;;4978732;28;45618;-60
2021/12/27 05:30:58;;;;;;;;;9.00;9.00;;;;;;;;4979254;28;46291;-60
2021/12/27 05:33:23;;;;;;;;;4.00;4.00;;;;;;;;4978645;28;45235;-60
2021/12/27 05:35:48;;;;;;;;;4.00;4.00;;;;;;;;4979190;28;45501;-60
2021/12/27 05:38:14;;;;;;;;;4.00;4.00;;;;;;;;4978608;28;45225;-60
2021/12/27 05:40:39;;;;;;;;;5.00;4.33;;;;;;;;4979122;28;45909;-60
2021/12/27 05:43:06;;;;;;;;;4.33;4.33;;;;;;;;4978573;28;45308;-60
2021/12/27 05:45:31;;;;;;;;;6.33;6.00;;;;;;;;4978498;28;45285;-60
2021/12/27 05:47:57;;;;;;;;;7.00;5.00;;;;;;;;4978093;28;45419;-60
2021/12/27 05:50:22;;;;;;;;;7.00;7.00;;;;;;;;4978750;28;45472;-60
2021/12/27 05:52:47;;;;;;;;;8.00;7.00;;;;;;;;4978179;28;45316;-60
2021/12/27 05:55:13;;;;;;;;;9.67;9.33;;;;;;;;4978456;28;45369;-60
2021/12/27 05:57:38;;;;;;;;;7.33;5.67;;;;;;;;4978804;28;45569;-60
2021/12/27 06:00:04;;;;;;;;;7.00;4.33;;;;;;;;4978042;28;45357;-61
2021/12/27 06:02:30;;;;;;;;;8.00;8.00;;;;;;;;4977995;28;45314;-60
2021/12/27 06:04:55;;;;;;;;;8.67;8.00;;;;;;;;4978457;28;45544;-60
2021/12/27 06:07:20;;;;;;;;;9.33;8.67;;;;;;;;4978957;28;45491;-60
2021/12/27 06:09:45;;;;;;;;;7.33;6.67;;;;;;;;4987392;28;46391;-60
2021/12/27 06:12:11;;;;;;;;;8.00;8.00;;;;;;;;4978323;28;45429;-60
2021/12/27 06:14:36;;;;;;;;;7.67;7.67;;;;;;;;4978599;28;45292;-60
2021/12/27 06:17:01;;;;;;;;;9.00;8.00;;;;;;;;4978330;28;45488;-60
2021/12/27 06:19:27;;;;;;;;;7.33;7.33;;;;;;;;4977747;28;45815;-60
2021/12/27 06:21:52;;;;;;;;;15.33;11.00;;;;;;;;4977698;28;45366;-60
2021/12/27 06:24:17;;;;;;;;;9.67;8.00;;;;;;;;4976796;28;45305;-61
2021/12/27 06:26:42;;;;;;;;;11.00;8.00;;;;;;;;4978196;28;45348;-60
2021/12/27 06:29:07;;;;;;;;;8.33;5.67;;;;;;;;4978172;28;45550;-60
2021/12/27 06:31:33;;;;;;;;;7.00;7.00;;;;;;;;4977630;28;45368;-60
2021/12/27 06:33:58;;;;;;;;;9.00;9.00;;;;;;;;4976635;28;45210;-60
2021/12/27 06:36:24;;;;;;;;;8.67;7.33;;;;;;;;4978194;28;45225;-60
2021/12/27 06:38:49;;;;;;;;;5.00;5.00;;;;;;;;4977832;28;45330;-61
2021/12/27 06:41:14;;;;;;;;;7.67;6.00;;;;;;;;4977794;28;45344;-60
2021/12/27 06:43:40;;;;;;;;;9.00;8.67;;;;;;;;4976817;28;45869;-54
2021/12/27 06:46:05;;;;;;;;;8.33;7.00;;;;;;;;4976580;28;45513;-53
2021/12/27 06:48:30;;;;;;;;;6.67;6.67;;;;;;;;4977437;28;46158;-53
2021/12/27 06:50:55;;;;;;;;;8.00;8.00;;;;;;;;4977076;28;45314;-50
2021/12/27 06:53:21;;;;;;;;;7.00;7.00;;;;;;;;4977553;28;45290;-54
2021/12/27 06:55:46;;;;;;;;;9.00;8.00;;;;;;;;4976127;28;45334;-52
2021/12/27 06:58:12;;;;;;;;;8.00;8.00;;;;;;;;4977181;28;45281;-55
2021/12/27 07:00:37;;;;;;;;;7.00;4.00;;;;;;;;4977683;28;45384;-52
2021/12/27 07:03:02;;;;;;;;;8.00;8.00;;;;;;;;4980400;28;45537;-55
2021/12/27 07:05:28;;;;;;;;;7.00;7.00;;;;;;;;4976734;28;45666;-54
2021/12/27 07:07:53;;;;;;;;;7.00;7.00;;;;;;;;4976952;28;47606;-55
2021/12/27 07:10:19;;;;;;;;;6.33;6.33;;;;;;;;4985907;28;45384;-53
2021/12/27 07:12:46;;;;;;;;;4.00;4.00;;;;;;;;4997161;28;45460;-54
2021/12/27 07:15:11;;;;;;;;;5.67;5.67;;;;;;;;4996740;28;45638;-56
2021/12/27 07:17:36;;;;;;;;;5.67;5.67;;;;;;;;4995413;28;45360;-55
2021/12/27 07:20:02;;;;;;;;;4.00;4.00;;;;;;;;4996961;28;45236;-51
2021/12/27 07:22:28;;;;;;;;;5.67;5.67;;;;;;;;4996465;28;45370;-49
2021/12/27 07:24:53;;;;;;;;;8.00;6.67;;;;;;;;4975428;28;45722;-57
2021/12/27 07:27:18;;;;;;;;;4.67;4.67;;;;;;;;4975254;28;46087;-54
2021/12/27 07:29:44;;;;;;;;;9.33;6.67;;;;;;;;4980289;28;45384;-56
2021/12/27 07:32:09;;;;;;;;;7.00;5.00;;;;;;;;4979175;28;45977;-53
2021/12/27 07:34:34;;;;;;;;;6.33;5.00;;;;;;;;4977266;28;45313;-57
2021/12/27 07:36:59;;;;;;;;;4.67;3.00;;;;;;;;4977084;28;46390;-55
2021/12/27 07:39:25;;;;;;;;;8.67;7.00;;;;;;;;4976214;28;45408;-54
2021/12/27 07:41:51;;;;;;;;;4.00;4.00;;;;;;;;4975485;28;45388;-55
2021/12/27 07:44:17;;;;;;;;;8.33;7.00;;;;;;;;4976258;28;45435;-55
2021/12/27 07:46:44;;;;;;;;;3.33;3.33;;;;;;;;4976930;28;45724;-56
2021/12/27 07:49:11;;;;;;;;;4.33;4.33;;;;;;;;4976866;28;45400;-52
2021/12/27 07:51:37;;;;;;;;;5.00;5.00;;;;;;;;4977258;28;45419;-54
2021/12/27 07:54:02;;;;;;;;;5.00;5.00;;;;;;;;4977253;28;45436;-55
2021/12/27 07:56:27;;;;;;;;;3.00;3.00;;;;;;;;4977088;28;45368;-55
2021/12/27 07:58:52;;;;;;;;;7.00;4.00;;;;;;;;4976854;28;45479;-56
2021/12/27 08:01:18;;;;;;;;;4.00;4.00;;;;;;;;4976627;28;45360;-56
2021/12/27 08:03:44;;;;;;;;;4.00;4.00;;;;;;;;4976859;28;45293;-55
2021/12/27 08:06:09;;;;;;;;;5.00;5.00;;;;;;;;4976714;28;46176;-56
2021/12/27 08:08:34;;;;;;;;;5.67;4.33;;;;;;;;4976763;28;45368;-51
2021/12/27 08:11:00;;;;;;;;;4.00;4.00;;;;;;;;4976530;28;45369;-54
2021/12/27 08:13:25;;;;;;;;;5.00;4.67;;;;;;;;4976989;28;45303;-56
2021/12/27 08:15:50;;;;;;;;;2.33;2.33;;;;;;;;4976767;28;45460;-55
2021/12/27 08:18:15;;;;;;;;;5.00;4.67;;;;;;;;4976253;28;45305;-56
2021/12/27 08:20:41;;;;;;;;;5.00;4.00;;;;;;;;4976444;28;45309;-55
2021/12/27 08:23:06;;;;;;;;;4.00;4.00;;;;;;;;4976016;28;45408;-55
2021/12/27 08:25:31;;;;;;;;;5.00;4.00;;;;;;;;4975138;28;46259;-54
2021/12/27 08:27:57;;;;;;;;;5.00;4.00;;;;;;;;4976552;28;45362;-54
2021/12/27 08:30:22;;;;;;;;;4.00;4.00;;;;;;;;4978160;28;45402;-56
2021/12/27 08:32:47;;;;;;;;;4.00;4.00;;;;;;;;4979695;28;45297;-55
2021/12/27 08:35:14;;;;;;;;;3.00;3.00;;;;;;;;4980007;28;45312;-56
2021/12/27 08:37:39;;;;;;;;;3.67;3.67;;;;;;;;4979763;28;45313;-55
2021/12/27 08:40:05;;;;;;;;;2.33;2.33;;;;;;;;4979944;28;45284;-57
2021/12/27 08:42:30;;;;;;;;;7.67;5.33;;;;;;;;4979961;28;45261;-56
2021/12/27 08:44:56;;;;;;;;;4.00;4.00;;;;;;;;4979321;28;46304;-55
2021/12/27 08:47:21;;;;;;;;;4.00;4.00;;;;;;;;4979896;28;45317;-57
2021/12/27 08:49:46;;;;;;;;;3.00;3.00;;;;;;;;4980001;28;45321;-55
2021/12/27 08:52:11;;;;;;;;;8.33;4.00;;;;;;;;4979914;28;45573;-56
2021/12/27 08:54:37;;;;;;;;;3.00;3.00;;;;;;;;4979193;28;45364;-53
2021/12/27 08:57:04;;;;;;;;;5.00;5.00;;;;;;;;4979671;28;45339;-56
2021/12/27 08:59:29;;;;;;;;;2.33;2.33;;;;;;;;4979401;28;45392;-56
2021/12/27 09:01:55;;;;;;;;;4.00;4.00;;;;;;;;4979585;28;45369;-54
2021/12/27 09:04:20;;;;;;;;;4.33;4.00;;;;;;;;4979440;28;46042;-56
2021/12/27 09:06:45;;;;;;;;;2.33;2.33;;;;;;;;4978997;28;45381;-55
2021/12/27 09:09:10;;;;;;;;;3.67;3.67;;;;;;;;4979825;28;45677;-56
2021/12/27 09:11:36;;;;;;;;;7.00;5.00;;;;;;;;4979653;28;45642;-53
2021/12/27 09:14:01;;;;;;;;;7.00;4.00;;;;;;;;4979504;28;45471;-56
2021/12/27 09:16:27;;;;;;;;;4.00;4.00;;;;;;;;4979148;28;45460;-56
2021/12/27 09:18:52;;;;;;;;;5.00;5.00;;;;;;;;4978812;28;45416;-57
2021/12/27 09:21:17;;;;;;;;;4.33;4.33;;;;;;;;4979134;28;45387;-54
2021/12/27 09:23:42;;;;;;;;;4.00;4.00;;;;;;;;4979291;28;45400;-55
2021/12/27 09:26:08;;;;;;;;;5.00;3.00;;;;;;;;4979124;28;45359;-55
2021/12/27 09:28:33;;;;;;;;;7.33;5.67;;;;;;;;4978862;28;45304;-54
2021/12/27 09:30:58;;;;;;;;;4.33;4.33;;;;;;;;4979360;28;45533;-56
2021/12/27 09:33:24;;;;;;;;;3.00;3.00;;;;;;;;4978813;28;46009;-56
2021/12/27 09:35:49;;;;;;;;;4.33;4.00;;;;;;;;4979039;28;45527;-57
2021/12/27 09:38:15;;;;;;;;;5.00;4.00;;;;;;;;4978977;28;45313;-57
2021/12/27 09:40:40;;;;;;;;;4.33;4.33;;;;;;;;4977874;28;45179;-53
2021/12/27 09:43:06;;;;;;;;;6.67;5.00;;;;;;;;4979019;28;45298;-56
2021/12/27 09:45:31;;;;;;;;;4.33;3.33;;;;;;;;4978949;28;45269;-55
2021/12/27 09:47:56;;;;;;;;;7.00;7.00;;;;;;;;4978998;28;45187;-52
2021/12/27 09:50:32;;;;;;;;;5.67;4.33;;;;;;;;4978377;28;45377;-54
2021/12/27 09:52:57;;;;;;;;;3.67;3.67;;;;;;;;4978688;28;46071;-53
2021/12/27 09:55:23;;;;;;;;;7.67;7.00;;;;;;;;4978588;28;45487;-53
2021/12/27 09:57:49;;;;;;;;;3.00;3.00;;;;;;;;4978624;28;45419;-55
2021/12/27 10:00:15;;;;;;;;;7.00;4.33;;;;;;;;4978469;28;45646;-54
2021/12/27 10:02:40;;;;;;;;;10.00;5.00;;;;;;;;4978136;28;45988;-56
2021/12/27 10:05:06;;;;;;;;;4.67;4.00;;;;;;;;4978484;28;45391;-54
2021/12/27 10:07:31;;;;;;;;;2.67;2.67;;;;;;;;4978356;28;45395;-55
2021/12/27 10:09:59;;;;;;;;;3.67;3.67;;;;;;;;4978491;28;45365;-56
2021/12/27 10:12:25;;;;;;;;;3.67;3.67;;;;;;;;4977804;28;45344;-56
2021/12/27 10:14:58;;;;;;;;;5.00;5.00;;;;;;;;4978037;28;45272;-57
2021/12/27 10:17:24;;;;;;;;;3.33;3.33;;;;;;;;4978208;28;45327;-53
2021/12/27 10:19:50;;;;;;;;;4.67;4.00;;;;;;;;4978010;28;45316;-54
2021/12/27 10:22:16;;;;;;;;;4.67;4.67;;;;;;;;4977889;28;45451;-56
2021/12/27 10:24:41;;;;;;;;;7.00;7.00;;;;;;;;4977614;28;45513;-54
2021/12/27 10:27:07;;;;;;;;;9.00;7.33;;;;;;;;4978323;28;45413;-54
2021/12/27 10:29:36;;;;;;;;;5.00;5.00;;;;;;;;4978135;28;45587;-54
2021/12/27 10:32:06;;;;;;;;;5.00;5.00;;;;;;;;4978083;28;45498;-55
2021/12/27 10:34:34;;;;;;;;;4.00;4.00;;;;;;;;4976052;28;45432;-54
2021/12/27 10:36:59;;;;;;;;;4.00;4.00;;;;;;;;4976965;28;45577;-57
2021/12/27 10:39:28;;;;;;;;;4.00;4.00;;;;;;;;4977766;28;45495;-55
2021/12/27 10:41:53;;;;;;;;;2.00;2.00;;;;;;;;4977900;28;45461;-53
2021/12/27 10:44:18;;;;;;;;;3.00;3.00;;;;;;;;4977543;28;45308;-57
2021/12/27 10:46:44;;;;;;;;;3.00;3.00;;;;;;;;4977416;28;45409;-56
2021/12/27 10:49:09;;;;;;;;;3.33;3.00;;;;;;;;4977938;28;45384;-53
2021/12/27 10:51:34;;;;;;;;;4.00;3.00;;;;;;;;4977374;28;45411;-55
2021/12/27 10:54:00;;;;;;;;;5.67;4.00;;;;;;;;4976498;28;45396;-56
2021/12/27 10:56:43;;;;;;;;;3.00;3.00;;;;;;;;4976094;28;45418;-57
2021/12/27 10:59:15;;;;;;;;;3.00;3.00;;;;;;;;4976477;28;45532;-55
2021/12/27 11:01:40;;;;;;;;;3.00;3.00;;;;;;;;4977633;28;45400;-56
2021/12/27 11:04:06;;;;;;;;;4.00;4.00;;;;;;;;4977470;28;45361;-56
2021/12/27 11:06:33;;;;;;;;;5.33;5.33;;;;;;;;4977201;28;45310;-55
2021/12/27 11:09:00;;;;;;;;;4.33;4.33;;;;;;;;4977542;28;45400;-56
2021/12/27 11:11:25;;;;;;;;;4.00;4.00;;;;;;;;4977153;28;46001;-55
2021/12/27 11:13:52;;;;;;;;;7.00;4.00;;;;;;;;4977081;28;45199;-57
2021/12/27 11:16:18;;;;;;;;;5.00;5.00;;;;;;;;4977535;28;45249;-55
2021/12/27 11:18:44;;;;;;;;;5.33;5.33;;;;;;;;4976633;28;45299;-55
2021/12/27 11:21:16;;;;;;;;;8.00;5.67;;;;;;;;4977096;28;45870;-57
2021/12/27 11:23:42;;;;;;;;;8.00;8.00;;;;;;;;4976908;28;45392;-56
2021/12/27 11:26:09;;;;;;;;;7.33;7.33;;;;;;;;4977119;28;45364;-53
2021/12/27 11:28:36;;;;;;;;;8.00;8.00;;;;;;;;4977009;28;45455;-54
2021/12/27 11:31:03;;;;;;;;;8.33;8.33;;;;;;;;4977140;28;46683;-54
2021/12/27 11:33:30;;;;;;;;;9.00;9.00;;;;;;;;4976723;28;45303;-56
2021/12/27 11:35:56;;;;;;;;;8.67;8.67;;;;;;;;4977013;28;45362;-55
2021/12/27 11:38:38;;;;;;;;;13.33;11.00;;;;;;;;4976968;28;45479;-54
2021/12/27 11:41:05;;;;;;;;;15.00;14.00;;;;;;;;4974932;28;47806;-55
2021/12/27 11:43:46;;;;;;;;;15.00;14.00;;;;;;;;4976689;28;45254;-52
2021/12/27 11:46:11;;;;;;;;;8.67;6.33;;;;;;;;4976672;28;45288;-56
2021/12/27 11:48:43;;;;;;;;;9.33;8.00;;;;;;;;4976705;28;45385;-54
2021/12/27 11:51:10;;;;;;;;;4.00;4.00;;;;;;;;4976338;28;45376;-54
2021/12/27 11:53:35;;;;;;;;;5.00;5.00;;;;;;;;4976531;28;45451;-54
2021/12/27 11:56:01;;;;;;;;;5.00;4.00;;;;;;;;4976832;28;45492;-55
2021/12/27 11:58:36;;;;;;;;;5.00;5.00;;;;;;;;4976848;28;45563;-54
2021/12/27 12:01:03;;;;;;;;;6.00;6.00;;;;;;;;4976562;28;45348;-55
2021/12/27 12:03:37;;;;;;;;;4.00;4.00;;;;;;;;4975591;28;45354;-55
2021/12/27 12:06:03;;;;;;;;;5.67;5.67;;;;;;;;4976642;28;45294;-57
2021/12/27 12:08:38;;;;;;;;;7.67;7.33;;;;;;;;4976612;28;45519;-57
2021/12/27 12:11:08;;;;;;;;;4.00;3.00;;;;;;;;4976360;28;45316;-56
2021/12/27 12:13:36;;;;;;;;;3.33;3.00;;;;;;;;4975951;28;45420;-58
2021/12/27 12:16:12;;;;;;;;;7.33;5.00;;;;;;;;4976227;28;45425;-53
2021/12/27 12:18:42;;;;;;;;;5.00;3.33;;;;;;;;4975559;28;45587;-55
2021/12/27 12:21:27;;;;;;;;;3.67;3.67;;;;;;;;4975545;28;46048;-56
2021/12/27 12:23:55;;;;;;;;;3.67;3.67;;;;;;;;4975982;28;45403;-57
2021/12/27 12:26:20;;;;;;;;;4.33;4.33;;;;;;;;4976677;28;45424;-57
2021/12/27 12:28:46;;;;;;;;;4.33;4.33;;;;;;;;4976597;28;45450;-57
2021/12/27 12:31:11;;;;;;;;;6.33;3.00;;;;;;;;4975156;28;46729;-57
2021/12/27 12:33:37;;;;;;;;;3.33;1.00;;;;;;;;4976515;28;45376;-54
2021/12/27 12:36:04;;;;;;;;;3.00;3.00;;;;;;;;4974354;28;45348;-56
2021/12/27 12:38:38;;;;;;;;;2.00;2.00;;;;;;;;4976458;28;45438;-55
2021/12/27 12:41:03;;;;;;;;;3.33;3.00;;;;;;;;4976075;28;45354;-57
2021/12/27 12:43:36;;;;;;;;;8.00;5.00;;;;;;;;4976210;28;45494;-60
2021/12/27 12:46:20;;;;;;;;;2.00;2.00;;;;;;;;4978664;28;45410;-59
2021/12/27 12:48:55;;;;;;;;;2.00;2.00;;;;;;;;4975976;28;45314;-59
2021/12/27 12:51:39;;;;;;;;;1.00;1.00;;;;;;;;4975977;28;45475;-58
2021/12/27 12:54:21;;;;;;;;;2.67;2.67;;;;;;;;4976000;28;45377;-57
2021/12/27 12:56:47;;;;;;;;;3.00;3.00;;;;;;;;4973855;28;45251;-56
2021/12/27 12:59:18;;;;;;;;;2.00;2.00;;;;;;;;4976196;28;45224;-58
2021/12/27 13:02:12;;;;;;;;;8.00;6.00;;;;;;;;4973596;28;48342;-57
2021/12/27 13:04:38;;;;;;;;;3.00;3.00;;;;;;;;4967130;28;45341;-56
2021/12/27 13:07:03;;;;;;;;;4.00;3.00;;;;;;;;4975607;28;45451;-59
2021/12/27 13:09:41;;;;;;;;;3.33;3.33;;;;;;;;4975470;28;45503;-57
2021/12/27 13:12:07;;;;;;;;;3.00;3.00;;;;;;;;4975010;28;47990;-59
2021/12/27 13:14:32;;;;;;;;;4.00;3.00;;;;;;;;4975467;28;45294;-56
2021/12/27 13:16:57;;;;;;;;;2.00;1.33;;;;;;;;4977733;28;45232;-58
2021/12/27 13:19:22;;;;;;;;;3.67;2.67;;;;;;;;4978431;28;45346;-60
2021/12/27 13:21:47;;;;;;;;;7.33;4.67;;;;;;;;4978907;28;45241;-59
2021/12/27 13:24:13;;;;;;;;;4.00;2.67;;;;;;;;4979042;28;45185;-56
2021/12/27 13:26:40;;;;;;;;;2.67;2.67;;;;;;;;4979180;28;45371;-56
2021/12/27 13:29:05;;;;;;;;;3.33;2.67;;;;;;;;4978242;28;45414;-59
2021/12/27 13:31:32;;;;;;;;;1.00;1.00;;;;;;;;4978425;28;45490;-58
2021/12/27 13:34:03;;;;;;;;;8.67;4.00;;;;;;;;4979087;28;45336;-56
2021/12/27 13:36:28;;;;;;;;;4.00;4.00;;;;;;;;4978819;28;45480;-58
2021/12/27 13:39:10;;;;;;;;;4.33;1.67;;;;;;;;4977512;28;45373;-54
2021/12/27 13:41:37;;;;;;;;;3.00;3.00;;;;;;;;4978365;28;45559;-59
2021/12/27 13:44:07;;;;;;;;;2.33;2.00;;;;;;;;4978869;28;45423;-55
2021/12/27 13:46:36;;;;;;;;;2.00;2.00;;;;;;;;4978685;28;45374;-55
2021/12/27 13:49:03;;;;;;;;;5.00;3.00;;;;;;;;4978592;28;45206;-58
2021/12/27 13:51:30;;;;;;;;;3.00;2.67;;;;;;;;4978235;28;46068;-59
2021/12/27 13:53:58;;;;;;;;;4.33;3.00;;;;;;;;4978725;28;45530;-59
2021/12/27 13:56:25;;;;;;;;;2.33;2.33;;;;;;;;4978798;28;45405;-57
2021/12/27 13:58:50;;;;;;;;;2.67;2.67;;;;;;;;4978739;28;45492;-58
2021/12/27 14:01:16;;;;;;;;;3.00;3.00;;;;;;;;4978131;28;45407;-58
2021/12/27 14:03:42;;;;;;;;;6.00;5.00;;;;;;;;4978147;28;45454;-57
2021/12/27 14:06:09;;;;;;;;;3.33;3.00;;;;;;;;4978382;28;45357;-59
2021/12/27 14:08:34;;;;;;;;;4.00;2.67;;;;;;;;4978519;28;45381;-58
2021/12/27 14:11:01;;;;;;;;;3.33;2.33;;;;;;;;4978338;28;46117;-59
2021/12/27 14:13:45;;;;;;;;;4.33;3.00;;;;;;;;4978305;28;45621;-58
2021/12/27 14:16:17;;;;;;;;;4.33;4.00;;;;;;;;4978406;28;45411;-58
2021/12/27 14:18:58;;;;;;;;;4.00;2.00;;;;;;;;4978305;28;45258;-56
2021/12/27 14:21:24;;;;;;;;;4.33;4.33;;;;;;;;4977958;28;46197;-57
2021/12/27 14:24:03;;;;;;;;;4.67;3.67;;;;;;;;4977786;28;45329;-57
2021/12/27 14:26:28;;;;;;;;;4.67;4.00;;;;;;;;4976274;28;45379;-58
2021/12/27 14:29:12;;;;;;;;;9.00;5.33;;;;;;;;4978164;28;45269;-56
2021/12/27 14:31:37;;;;;;;;;7.67;5.33;;;;;;;;4978079;28;46236;-57
2021/12/27 14:34:02;;;;;;;;;3.00;3.00;;;;;;;;4977946;28;45380;-57
2021/12/27 14:36:30;;;;;;;;;3.00;3.00;;;;;;;;4977694;28;45349;-58
2021/12/27 14:38:55;;;;;;;;;4.67;4.67;;;;;;;;4978009;28;45480;-57
2021/12/27 14:41:20;;;;;;;;;5.00;4.00;;;;;;;;4977900;28;45340;-57
2021/12/27 14:43:47;;;;;;;;;9.00;7.00;;;;;;;;4977705;28;45364;-58
2021/12/27 14:46:12;;;;;;;;;11.67;10.67;;;;;;;;4977651;28;45385;-59